• Join FlightAware (Why Join?)
  • Login
  • US Flag 
01:25AM EDT


 

Airport Tracker/Info


-or-


 

Live Flight TrackerFlight Track Log ✈ GJS6221 ✈ 29-Sep-2013 ✈ KLGA - KSAV

Flight Track Log - Related Links

Times and Time Zones

All times are in EDT time to prevent confusion due to time zone crossing. See the GJS6221 flight status page for this flight to view local times or setup timezone preferences in your user account.

Time Position Orientation Groundspeed Altitude Reporting Facility
EDT Latitude Longitude Course Direction KTS MPH feet Rate Location/Type
02:01PM 40.7667 -73.8500 225° Southwest 150 173 1,300  Level New York TRACON
02:02PM 40.7333 -73.8000 131° Southeast 204 235 3,400 2,100 Climbing New York TRACON
02:03PM 40.7833 -73.7833 14° North 245 282 5,600 2,400 Climbing New York TRACON
02:04PM 40.7833 -73.8833 270° West 284 327 8,300 2,640 Climbing New York TRACON
02:05PM 40.7333 -73.9667 232° Southwest 300 345 10,900 1,860 Climbing New York TRACON
02:06PM 40.6500 -74.0167 204° Southwest 343 395 12,100 1,620 Climbing New York TRACON
02:07PM 40.3006 -74.3346 225° Southwest  Level Estimated
02:07PM 40.5667 -74.0500 197° South 361 415 14,200  Level New York TRACON
02:10PM 40.3408 -74.1286 195° South 382 440 17,000 1,080 Climbing New York Center
02:11PM 40.2503 -74.1675 198° South 382 440 17,800 1,380 Climbing New York Center
02:13PM 40.0303 -74.3831 217° Southwest 400 460 21,800 1,200 Climbing Washington Center
02:14PM 39.9394 -74.4767 218° Southwest 411 473 22,000 900 Climbing Washington Center
02:15PM 39.8444 -74.5700 217° Southwest 423 487 23,600 1,380 Climbing Washington Center
02:16PM 39.7703 -74.6467 218° Southwest 423 487 24,900 1,380 Climbing Washington Center
02:17PM 39.6667 -74.7478 217° Southwest 428 493 26,400 1,440 Climbing Washington Center
02:18PM 39.5736 -74.8431 218° Southwest 428 493 27,800 1,200 Climbing Washington Center
02:19PM 39.4806 -74.9356 218° Southwest 428 493 28,800 960 Climbing Washington Center
02:20PM 39.3850 -75.0278 217° Southwest 433 498 29,800 960 Climbing Washington Center
02:21PM 39.2894 -75.1197 217° Southwest 433 498 30,800 960 Climbing Washington Center
02:22PM 39.1878 -75.2006 212° Southwest 433 498 31,800 720 Climbing Washington Center
02:23PM 39.0817 -75.2761 209° Southwest 433 498 32,300 540 Climbing Washington Center
02:24PM 38.9778 -75.3594 212° Southwest 443 510 32,900 840 Climbing Washington Center
02:25PM 38.8714 -75.4475 213° Southwest 448 516 34,000 660 Climbing Washington Center
02:26PM 38.7611 -75.5225 208° Southwest 448 516 34,300 240 Climbing Washington Center
02:27PM 38.6464 -75.6075 210° Southwest 460 529 34,500 300 Climbing Washington Center
02:28PM 38.5297 -75.6900 209° Southwest 475 547 35,000 480 Climbing Washington Center
02:29PM 38.4108 -75.7825 211° Southwest 486 559 35,500 540 Climbing Washington Center
02:30PM 38.2769 -75.8775 209° Southwest 497 572 36,100 540 Climbing Washington Center
02:31PM 38.1558 -75.9694 211° Southwest 508 585 36,600 480 Climbing Washington Center
02:32PM 38.0347 -76.0611 211° Southwest 508 585 37,100 540 Climbing Washington Center
02:33PM 37.9111 -76.1497 209° Southwest 514 592 37,800 420 Climbing Washington Center
02:34PM 37.7897 -76.2381 210° Southwest 514 592 38,000 60 Climbing Washington Center
02:35PM 37.6683 -76.3289 211° Southwest 514 592 38,000  Level Washington Center
02:36PM 37.5553 -76.4117 210° Southwest 514 592 38,000  Level Washington Center
02:37PM 37.4231 -76.5044 209° Southwest 508 585 38,000  Level Washington Center
02:38PM 37.2972 -76.5917 209° Southwest 508 585 38,000  Level Washington Center
02:39PM 37.1733 -76.6814 210° Southwest 513 590 38,000  Level Washington Center
02:40PM 37.0472 -76.7733 210° Southwest 513 590 38,000  Level Washington Center
02:41PM 36.9253 -76.8675 212° Southwest 513 590 38,000  Level Washington Center
02:42PM 36.8094 -76.9719 216° Southwest 518 596 38,000  Level Washington Center
02:43PM 36.6936 -77.0761 216° Southwest 523 602 38,000  Level Washington Center
02:44PM 36.5775 -77.1825 216° Southwest 523 602 38,000  Level Washington Center
02:45PM 36.4614 -77.2836 215° Southwest 523 602 38,000  Level Washington Center
02:46PM 36.3450 -77.3842 215° Southwest 523 602 38,000  Level Washington Center
02:47PM 36.2456 -77.4719 215° Southwest 511 588 38,000  Level Washington Center
02:48PM 36.1292 -77.5722 215° Southwest 506 582 38,000  Level Washington Center
02:49PM 36.0150 -77.6747 216° Southwest 506 582 38,000  Level Washington Center
02:50PM 35.9025 -77.7767 216° Southwest 512 589 38,000  Level Washington Center
02:51PM 35.7919 -77.8814 218° Southwest 507 583 38,000  Level Washington Center
02:52PM 35.6814 -77.9881 218° Southwest 507 583 38,000  Level Washington Center
02:53PM 35.5708 -78.0919 217° Southwest 507 583 38,000  Level Washington Center
02:54PM 35.4600 -78.1956 217° Southwest 507 583 38,000  Level Washington Center
02:55PM 35.3472 -78.2989 217° Southwest 507 583 38,000  Level Washington Center
02:56PM 35.2383 -78.4047 218° Southwest 507 583 38,000  Level Washington Center
02:57PM 35.1167 -78.5172 217° Southwest 507 583 38,000  Level Washington Center
02:58PM 35.0097 -78.6222 219° Southwest 502 578 38,000  Level Washington Center
03:00PM 34.8375 -78.7800 217° Southwest 504 580 38,000  Level Jacksonville Center
03:01PM 34.7322 -78.8786 218° Southwest 504 580 38,000  Level Jacksonville Center
03:02PM 34.6206 -78.9797 217° Southwest 499 574 38,000  Level Jacksonville Center
03:03PM 34.5033 -79.0958 219° Southwest 499 574 38,000  Level Jacksonville Center
03:04PM 34.3936 -79.1961 217° Southwest 504 580 38,000  Level Jacksonville Center
03:05PM 34.2817 -79.2964 217° Southwest 504 580 38,000  Level Jacksonville Center
03:06PM 34.1758 -79.3936 217° Southwest 499 574 38,000 -60 Level Jacksonville Center
03:07PM 34.0681 -79.4883 216° Southwest 492 566 37,900 -540 Descending Jacksonville Center
03:08PM 33.9581 -79.5903 218° Southwest 492 566 37,000 -960 Descending Jacksonville Center
03:09PM 33.8478 -79.6894 217° Southwest 497 572 36,000 -540 Descending Jacksonville Center
03:10PM 33.7397 -79.7881 217° Southwest 497 572 36,000 -540 Level Jacksonville Center
03:11PM 33.6294 -79.8844 216° Southwest 497 572 35,000 -1,260 Descending Jacksonville Center
03:12PM 33.5211 -79.9853 218° Southwest 497 572 33,500 -1,500 Descending Jacksonville Center
03:13PM 33.4147 -80.0806 217° Southwest 497 572 32,000 -1,500 Descending Jacksonville Center
03:14PM 33.3042 -80.1786 217° Southwest 497 572 30,500 -1,500 Descending Jacksonville Center
03:15PM 33.1978 -80.2761 217° Southwest 497 572 29,000 -1,500 Descending Jacksonville Center
03:16PM 33.0972 -80.3608 215° Southwest 502 578 27,600 -1,500 Descending Jacksonville Center
03:17PM 32.9886 -80.4581 217° Southwest 497 572 26,100 -1,500 Descending Jacksonville Center
03:18PM 32.8839 -80.5475 216° Southwest 487 560 24,600 -1,500 Descending Jacksonville Center
03:19PM 32.7853 -80.6342 216° Southwest 465 535 23,100 -1,500 Descending Jacksonville Center
03:20PM 32.6886 -80.7181 216° Southwest 449 517 21,600 -1,500 Descending Jacksonville Center
03:21PM 32.5808 -80.7747 204° Southwest 443 510 20,100 -1,500 Descending Jacksonville Center
03:22PM 32.4664 -80.7922 187° South 422 486 18,700 -1,320 Descending Jacksonville Center
03:23PM 32.3606 -80.8242 194° South 397 457 17,500 -1,500 Descending Jacksonville Center
03:24PM 32.3328 -80.9133 250° West 301 346 15,700 -1,980 Descending Jacksonville Center
03:25PM 32.3031 -81.0172 251° West 306 352 13,600 -1,920 Descending Jacksonville Center
03:26PM 32.2811 -81.0989 252° West 301 346 11,900 -2,340 Descending Jacksonville Center
03:27PM 32.2597 -81.2025 256° West 301 346 9,000 -2,580 Descending Jacksonville Center
03:28PM 32.2628 -81.2908 272° West 278 320 6,900 -2,400 Descending Jacksonville Center
03:29PM 32.2703 -81.3717 276° West 268 308 4,300 -1,560 Descending Jacksonville Center
03:30PM 32.2414 -81.4214 236° Southwest 194 223 3,800 -1,200 Descending Jacksonville Center
03:31PM 32.1850 -81.4025 164° South 171 197 2,000 -900 Descending Jacksonville Center
03:32PM 32.1469 -81.3639 139° Southeast 171 197 2,000  Level Jacksonville Center
03:34PM 32.1167 -81.2000 270° West  Level FlightAware Approximate
03:41PM 32.1276 -81.2021 270° West  Level Estimated
03:42PM 32.1276 -81.2021 270° West  Level Estimated
03:43PM 32.1276 -81.2021 270° West  Level Estimated
03:44PM 32.1276 -81.2021 270° West  Level Estimated
03:45PM 32.1276 -81.2021 270° West  Level Estimated
03:46PM 32.1276 -81.2021 270° West  Level Estimated